createdAt,value
2018-06-23T00:00:58.117Z,63.72
2018-06-23T00:03:27.850Z,64.22
2018-06-23T00:05:56.881Z,64.51
2018-06-23T00:08:25.967Z,65.53
2018-06-23T00:10:54.953Z,66.18
2018-06-23T00:13:24.784Z,66.27
2018-06-23T00:15:53.704Z,65.83
2018-06-23T00:18:22.791Z,65.23
2018-06-23T00:20:51.739Z,65.86
2018-06-23T00:23:21.343Z,64.40
2018-06-23T00:25:55.368Z,66.40
2018-06-23T00:28:24.918Z,66.65
2018-06-23T00:30:53.897Z,66.21
2018-06-23T00:33:22.899Z,65.53
2018-06-23T00:35:52.517Z,66.12
2018-06-23T00:38:21.502Z,65.44
2018-06-23T00:40:50.583Z,65.94
2018-06-23T00:43:19.600Z,66.06
2018-06-23T00:45:49.559Z,67.13
2018-06-23T00:48:18.688Z,67.62
2018-06-23T00:50:47.637Z,67.73
2018-06-23T00:53:16.580Z,66.95
2018-06-23T00:55:45.675Z,65.88
2018-06-23T00:58:14.698Z,65.19
2018-06-23T01:00:43.713Z,65.79
2018-06-23T01:03:12.766Z,64.43
2018-06-23T01:05:41.716Z,66.00
2018-06-23T01:08:10.628Z,65.13
2018-06-23T01:10:39.695Z,64.70
2018-06-23T01:13:09.124Z,64.31
2018-06-23T01:15:38.110Z,64.90
2018-06-23T01:18:07.213Z,66.64
2018-06-23T01:20:36.232Z,65.56
2018-06-23T01:23:05.232Z,65.01
2018-06-23T01:25:34.397Z,66.44
2018-06-23T01:30:31.080Z,65.17
2018-06-23T01:33:00.147Z,65.87
2018-06-23T01:35:29.145Z,65.92
2018-06-23T01:37:58.951Z,65.28
2018-06-23T01:40:28.208Z,66.10
2018-06-23T01:42:57.805Z,66.20
2018-06-23T01:45:26.896Z,66.39
2018-06-23T01:47:56.597Z,66.44
2018-06-23T01:50:25.568Z,66.59
2018-06-23T01:52:54.545Z,65.88
2018-06-23T01:55:23.688Z,65.70
2018-06-23T01:57:52.645Z,66.36
2018-06-23T02:00:21.662Z,66.08
2018-06-23T02:02:50.817Z,67.08
2018-06-23T02:05:19.816Z,66.78
2018-06-23T02:07:48.808Z,66.75
2018-06-23T02:10:17.892Z,67.38
2018-06-23T02:12:46.838Z,66.73
2018-06-23T02:15:16.577Z,67.15
2018-06-23T02:17:51.677Z,66.82
2018-06-23T02:21:25.704Z,66.90
2018-06-23T02:23:59.881Z,66.69
2018-06-23T02:26:33.979Z,66.92
2018-06-23T02:29:09.132Z,66.75
2018-06-23T02:31:43.317Z,67.22
2018-06-23T02:34:17.437Z,67.40
2018-06-23T02:36:46.451Z,67.07
2018-06-23T02:39:15.757Z,67.05
2018-06-23T02:41:44.879Z,66.25
2018-06-23T02:44:13.889Z,67.63
2018-06-23T02:46:42.885Z,67.86
2018-06-23T02:49:11.966Z,68.23
2018-06-23T02:51:40.923Z,67.07
2018-06-23T02:54:10.610Z,65.58
2018-06-23T02:56:40.255Z,66.22
2018-06-23T02:59:09.272Z,66.70
2018-06-23T03:01:38.259Z,66.26
2018-06-23T03:04:07.472Z,66.62
2018-06-23T03:06:36.565Z,65.31
2018-06-23T03:09:07.624Z,64.49
2018-06-23T03:11:36.565Z,64.80
2018-06-23T03:14:05.567Z,64.67
2018-06-23T03:16:35.094Z,65.19
2018-06-23T03:19:04.974Z,65.78
2018-06-23T03:21:33.938Z,65.21
2018-06-23T03:24:02.909Z,65.29
2018-06-23T03:26:31.925Z,64.69
2018-06-23T03:29:01.081Z,65.29
2018-06-23T03:31:30.304Z,65.49
2018-06-23T03:33:59.271Z,66.90
2018-06-23T03:36:28.347Z,65.19
2018-06-23T03:38:58.233Z,62.52
2018-06-23T03:41:27.976Z,61.73
2018-06-23T03:43:57.328Z,61.56
2018-06-23T03:46:26.669Z,63.36
2018-06-23T03:48:55.717Z,63.36
2018-06-23T03:51:26.025Z,61.39
2018-06-23T03:53:54.959Z,60.81
2018-06-23T03:56:24.148Z,62.03
2018-06-23T03:58:53.534Z,57.92
2018-06-23T04:01:22.444Z,58.87
2018-06-23T04:03:51.360Z,59.47
2018-06-23T04:06:20.313Z,60.22
2018-06-23T04:08:49.233Z,59.22
2018-06-23T04:11:18.199Z,62.42
2018-06-23T04:13:48.109Z,58.11
2018-06-23T04:16:17.036Z,60.05
2018-06-23T04:18:51.323Z,57.73
2018-06-23T04:21:20.247Z,60.91
2018-06-23T04:23:49.143Z,60.85
2018-06-23T04:26:18.281Z,60.53
2018-06-23T04:28:47.211Z,60.83
2018-06-23T04:31:16.207Z,59.16
2018-06-23T04:33:45.294Z,63.23
2018-06-23T04:36:14.785Z,62.35
2018-06-23T04:38:43.966Z,62.41
2018-06-23T04:41:13.112Z,61.37
2018-06-23T04:43:42.175Z,59.70
2018-06-23T04:46:12.002Z,57.06
2018-06-23T04:48:40.972Z,54.04
2018-06-23T04:51:10.001Z,55.15
2018-06-23T04:53:50.476Z,54.84
2018-06-23T04:56:19.508Z,54.40
2018-06-23T04:58:48.410Z,53.20
2018-06-23T05:01:17.516Z,52.11
2018-06-23T05:03:46.468Z,51.35
2018-06-23T05:06:15.427Z,50.54
2018-06-23T05:08:44.497Z,49.72
2018-06-23T05:11:13.428Z,50.54
2018-06-23T05:13:42.362Z,51.57
2018-06-23T05:16:11.327Z,53.25
2018-06-23T05:18:40.220Z,48.48
2018-06-23T05:21:09.146Z,50.64
2018-06-23T05:23:38.222Z,49.33
2018-06-23T05:26:07.131Z,48.56
2018-06-23T05:28:36.147Z,48.19
2018-06-23T05:31:05.267Z,48.17
2018-06-23T05:33:34.234Z,49.42
2018-06-23T05:36:03.205Z,49.17
2018-06-23T05:38:32.303Z,50.52
2018-06-23T05:41:01.228Z,49.70
2018-06-23T05:43:30.801Z,49.72
2018-06-23T05:45:59.971Z,50.57
2018-06-23T05:48:29.867Z,49.03
2018-06-23T05:50:58.796Z,49.63
2018-06-23T05:53:27.772Z,49.37
2018-06-23T05:55:56.740Z,49.52
2018-06-23T05:58:26.163Z,50.66
2018-06-23T06:00:55.201Z,49.03
2018-06-23T06:03:24.152Z,49.66
2018-06-23T06:05:53.700Z,50.74
2018-06-23T06:08:22.887Z,49.65
2018-06-23T06:10:51.940Z,50.65
2018-06-23T06:13:20.900Z,51.00
2018-06-23T06:15:49.919Z,49.25
2018-06-23T06:18:18.919Z,50.79
2018-06-23T06:20:47.869Z,50.96
2018-06-23T06:23:16.872Z,49.94
2018-06-23T06:25:46.524Z,48.11
2018-06-23T06:28:15.480Z,49.22
2018-06-23T06:30:44.501Z,52.68
2018-06-23T06:33:13.473Z,50.63
2018-06-23T06:35:42.502Z,53.41
2018-06-23T06:38:11.664Z,52.83
2018-06-23T06:40:41.252Z,54.75
2018-06-23T06:43:10.678Z,54.62
2018-06-23T06:45:39.707Z,52.75
2018-06-23T06:48:08.805Z,51.22
2018-06-23T06:50:37.845Z,52.86
2018-06-23T06:53:06.896Z,50.56
2018-06-23T06:55:35.795Z,50.03
2018-06-23T06:58:04.730Z,54.32
2018-06-23T07:00:33.784Z,56.61
2018-06-23T07:03:02.733Z,57.96
2018-06-23T07:05:31.651Z,56.85
2018-06-23T07:08:00.638Z,57.14
2018-06-23T07:10:29.636Z,56.87
2018-06-23T07:12:58.645Z,57.03
2018-06-23T07:15:27.667Z,60.62
2018-06-23T07:17:56.727Z,57.39
2018-06-23T07:20:29.062Z,58.42
2018-06-23T07:22:58.058Z,57.76
2018-06-23T07:25:27.101Z,61.78
2018-06-23T07:27:56.176Z,61.96
2018-06-23T07:30:25.131Z,60.04
2018-06-23T07:32:54.070Z,52.43
2018-06-23T07:35:23.033Z,54.37
2018-06-23T07:37:52.613Z,49.50
2018-06-23T07:40:21.939Z,46.83
2018-06-23T07:42:50.907Z,47.00
2018-06-23T07:45:19.808Z,45.92
2018-06-23T07:47:48.779Z,46.94
2018-06-23T07:50:17.860Z,42.45
2018-06-23T07:52:46.799Z,41.15
2018-06-23T07:55:15.793Z,42.06
2018-06-23T07:57:45.101Z,41.21
2018-06-23T08:00:15.053Z,40.63
2018-06-23T08:02:44.196Z,39.24
2018-06-23T08:05:13.163Z,40.32
2018-06-23T08:07:42.090Z,38.57
2018-06-23T08:10:11.107Z,40.88
2018-06-23T08:12:40.078Z,39.91
2018-06-23T08:15:09.029Z,38.96
2018-06-23T08:17:38.057Z,39.75
2018-06-23T08:20:07.204Z,38.12
2018-06-23T08:22:36.137Z,38.38
2018-06-23T08:25:06.557Z,39.47
2018-06-23T08:27:35.583Z,40.94
2018-06-23T08:30:04.617Z,38.89
2018-06-23T08:32:33.608Z,40.07
2018-06-23T08:35:02.647Z,38.75
2018-06-23T08:37:31.576Z,42.08
2018-06-23T08:40:00.583Z,39.66
2018-06-23T08:42:30.418Z,38.75
2018-06-23T08:44:59.328Z,38.87
2018-06-23T08:47:28.271Z,40.37
2018-06-23T08:49:57.203Z,39.80
2018-06-23T08:52:26.337Z,41.53
2018-06-23T08:54:55.355Z,38.93
2018-06-23T08:57:24.344Z,37.19
2018-06-23T08:59:53.339Z,36.37
2018-06-23T09:02:22.312Z,38.13
2018-06-23T09:04:51.406Z,37.52
2018-06-23T09:07:20.311Z,39.46
2018-06-23T09:09:49.452Z,37.91
2018-06-23T09:12:18.910Z,35.93
2018-06-23T09:14:47.941Z,38.47
2018-06-23T09:17:17.032Z,38.41
2018-06-23T09:19:46.165Z,38.05
2018-06-23T09:22:15.173Z,38.35
2018-06-23T09:24:44.159Z,39.74
2018-06-23T09:27:14.167Z,37.65
2018-06-23T09:29:43.231Z,37.39
2018-06-23T09:32:12.233Z,38.83
2018-06-23T09:34:41.238Z,39.45
2018-06-23T09:37:11.045Z,39.69
2018-06-23T09:39:40.741Z,39.01
2018-06-23T09:42:09.706Z,38.61
2018-06-23T09:44:39.165Z,39.14
2018-06-23T09:47:08.942Z,39.29
2018-06-23T09:49:37.874Z,41.22
2018-06-23T09:52:06.817Z,39.50
2018-06-23T09:54:35.901Z,40.68
2018-06-23T09:57:05.320Z,41.59
2018-06-23T09:59:34.241Z,40.58
2018-06-23T10:02:03.413Z,41.50
2018-06-23T10:04:32.359Z,42.02
2018-06-23T10:07:01.288Z,40.23
2018-06-23T10:09:30.286Z,38.70
2018-06-23T10:11:59.287Z,40.00
2018-06-23T10:14:28.675Z,41.08
2018-06-23T10:16:57.697Z,39.18
2018-06-23T10:19:26.643Z,40.80
2018-06-23T10:21:56.513Z,39.35
2018-06-23T10:24:25.819Z,38.60
2018-06-23T10:26:54.735Z,42.16
2018-06-23T10:29:24.500Z,39.39
2018-06-23T10:31:54.676Z,38.58
2018-06-23T10:34:23.665Z,40.64
2018-06-23T10:36:52.652Z,39.79
2018-06-23T10:39:21.671Z,39.43
2018-06-23T10:41:50.693Z,38.57
2018-06-23T10:44:19.730Z,39.37
2018-06-23T10:46:48.745Z,39.21
2018-06-23T10:49:18.403Z,37.89
2018-06-23T10:51:48.051Z,38.78
2018-06-23T10:54:17.096Z,37.27
2018-06-23T10:56:46.161Z,34.12
2018-06-23T10:59:15.078Z,33.18
2018-06-23T11:01:44.134Z,36.84
2018-06-23T11:04:13.076Z,37.90
2018-06-23T11:06:41.977Z,36.34
2018-06-23T11:09:11.208Z,35.53
2018-06-23T11:11:40.148Z,36.84
2018-06-23T11:14:09.021Z,34.56
2018-06-23T11:16:38.750Z,36.02
2018-06-23T11:19:07.749Z,33.25
2018-06-23T11:21:36.663Z,33.86
2018-06-23T11:24:05.828Z,33.71
2018-06-23T11:26:35.536Z,36.00
2018-06-23T11:29:04.558Z,36.07
2018-06-23T11:31:33.629Z,34.78
2018-06-23T11:34:03.225Z,33.96
2018-06-23T11:36:32.163Z,33.34
2018-06-23T11:39:01.870Z,34.68
2018-06-23T11:41:30.847Z,36.13
2018-06-23T11:43:59.783Z,33.81
2018-06-23T11:46:28.827Z,36.26
2018-06-23T11:48:57.863Z,36.58
2018-06-23T11:51:26.826Z,35.89
2018-06-23T11:56:23.545Z,36.72
2018-06-23T11:58:52.619Z,35.36
2018-06-23T12:01:21.603Z,36.02
2018-06-23T12:03:50.613Z,35.87
2018-06-23T12:06:25.139Z,37.84
2018-06-23T12:08:54.360Z,36.32
2018-06-23T12:11:24.069Z,35.90
2018-06-23T12:13:53.340Z,35.90
2018-06-23T12:16:22.303Z,35.66
2018-06-23T12:18:51.232Z,35.06
2018-06-23T12:21:20.192Z,35.54
2018-06-23T12:23:50.048Z,35.57
2018-06-23T12:26:19.018Z,34.51
2018-06-23T12:28:48.040Z,35.43
2018-06-23T12:31:16.996Z,33.57
2018-06-23T12:33:46.012Z,32.57
2018-06-23T12:36:15.012Z,31.74
2018-06-23T12:38:43.971Z,34.63
2018-06-23T12:41:12.976Z,32.88
2018-06-23T12:43:42.109Z,33.36
2018-06-23T12:46:11.063Z,33.86
2018-06-23T12:48:40.024Z,34.63
2018-06-23T12:51:09.059Z,35.76
2018-06-23T12:53:38.027Z,34.62
2018-06-23T12:56:07.093Z,33.20
2018-06-23T12:58:36.087Z,35.21
2018-06-23T13:01:05.212Z,35.75
2018-06-23T13:03:34.172Z,34.00
2018-06-23T13:06:03.177Z,34.79
2018-06-23T13:08:32.109Z,33.21
2018-06-23T13:11:01.331Z,34.20
2018-06-23T13:13:30.343Z,35.68
2018-06-23T13:16:00.532Z,31.84
2018-06-23T13:18:29.504Z,35.74
2018-06-23T13:21:00.183Z,33.79
2018-06-23T13:23:29.157Z,34.02
2018-06-23T13:25:58.140Z,33.92
2018-06-23T13:28:27.103Z,33.09
2018-06-23T13:30:56.045Z,32.13
2018-06-23T13:33:25.149Z,33.32
2018-06-23T13:35:54.176Z,30.28
2018-06-23T13:38:23.095Z,32.05
2018-06-23T13:40:52.228Z,30.00
2018-06-23T13:43:21.283Z,30.65
2018-06-23T13:45:50.260Z,32.21
2018-06-23T13:48:19.303Z,29.73
2018-06-23T13:50:48.207Z,32.81
2018-06-23T13:53:17.216Z,31.70
2018-06-23T13:55:46.326Z,31.48
2018-06-23T13:58:15.285Z,32.50
2018-06-23T14:00:44.309Z,32.18
2018-06-23T14:03:14.247Z,31.73
2018-06-23T14:05:43.478Z,32.98
2018-06-23T14:08:12.532Z,29.40
2018-06-23T14:10:41.654Z,31.72
2018-06-23T14:13:10.634Z,31.32
2018-06-23T14:15:39.581Z,32.06
2018-06-23T14:18:09.347Z,33.51
2018-06-23T14:20:38.356Z,33.51
2018-06-23T14:23:07.315Z,32.40
2018-06-23T14:25:36.405Z,33.06
2018-06-23T14:28:05.637Z,33.48
2018-06-23T14:30:34.688Z,33.93
2018-06-23T14:33:03.804Z,34.74
2018-06-23T14:35:32.776Z,34.13
2018-06-23T14:38:01.770Z,34.44
2018-06-23T14:40:30.731Z,35.11
2018-06-23T14:42:59.655Z,36.52
2018-06-23T14:45:28.657Z,35.91
2018-06-23T14:47:58.290Z,36.89
2018-06-23T14:50:27.267Z,37.82
2018-06-23T14:52:56.241Z,35.89
2018-06-23T14:55:25.219Z,35.92
2018-06-23T14:57:55.630Z,35.73
2018-06-23T15:00:24.625Z,37.01
2018-06-23T15:02:53.575Z,37.54
2018-06-23T15:05:22.628Z,36.75
2018-06-23T15:07:51.603Z,35.46
2018-06-23T15:10:31.492Z,33.96
2018-06-23T15:13:14.880Z,34.34
2018-06-23T15:15:43.863Z,33.81
2018-06-23T15:18:12.949Z,36.34
2018-06-23T15:20:42.617Z,35.40
2018-06-23T15:23:11.701Z,35.69
2018-06-23T15:25:40.646Z,34.53
2018-06-23T15:28:09.801Z,35.55
2018-06-23T15:30:38.617Z,35.38
2018-06-23T15:33:07.598Z,35.45
2018-06-23T15:35:36.741Z,35.46
2018-06-23T15:38:05.798Z,35.88
2018-06-23T15:40:34.824Z,36.33
2018-06-23T15:43:03.844Z,36.53
2018-06-23T15:45:32.880Z,37.17
2018-06-23T15:48:01.915Z,36.18
2018-06-23T15:50:30.913Z,36.25
2018-06-23T15:52:59.895Z,36.44
2018-06-23T15:55:28.901Z,35.97
2018-06-23T15:57:57.948Z,35.95
2018-06-23T16:00:26.881Z,35.03
2018-06-23T16:02:55.970Z,35.33
2018-06-23T16:05:26.088Z,34.65
2018-06-23T16:07:55.101Z,35.78
2018-06-23T16:10:26.025Z,36.49
2018-06-23T16:12:55.532Z,36.13
2018-06-23T16:15:24.512Z,35.04
2018-06-23T16:17:53.581Z,36.24
2018-06-23T16:20:22.585Z,35.49
2018-06-23T16:22:51.503Z,34.97
2018-06-23T16:25:20.598Z,34.62
2018-06-23T16:27:49.712Z,33.91
2018-06-23T16:30:18.757Z,33.69
2018-06-23T16:32:48.208Z,34.40
2018-06-23T16:35:17.594Z,33.56
2018-06-23T16:37:46.306Z,34.64
2018-06-23T16:40:15.365Z,34.14
2018-06-23T16:42:44.400Z,34.70
2018-06-23T16:45:13.429Z,34.58
2018-06-23T16:47:42.459Z,34.06
2018-06-23T16:50:11.857Z,34.79
2018-06-23T16:52:40.973Z,36.20
2018-06-23T16:55:10.781Z,35.65
2018-06-23T16:57:39.784Z,36.16
2018-06-23T17:00:08.822Z,34.81
2018-06-23T17:02:37.789Z,35.20
2018-06-23T17:05:06.788Z,35.27
2018-06-23T17:07:35.937Z,36.29
2018-06-23T17:10:06.054Z,36.60
2018-06-23T17:12:34.970Z,35.48
2018-06-23T17:15:03.930Z,36.58
2018-06-23T17:17:33.013Z,35.84
2018-06-23T17:20:01.965Z,36.59
2018-06-23T17:22:30.913Z,36.29
2018-06-23T17:24:59.988Z,35.85
2018-06-23T17:27:28.939Z,37.13
2018-06-23T17:29:57.949Z,36.62
2018-06-23T17:32:27.074Z,37.18
2018-06-23T17:34:56.061Z,36.81
2018-06-23T17:37:25.772Z,37.57
2018-06-23T17:39:54.763Z,37.70
2018-06-23T17:42:23.669Z,37.51
2018-06-23T17:44:52.600Z,37.47
2018-06-23T17:47:22.097Z,37.90
2018-06-23T17:49:51.039Z,37.90
2018-06-23T17:52:20.025Z,37.49
2018-06-23T17:54:49.879Z,37.89
2018-06-23T17:57:18.997Z,37.53
2018-06-23T17:59:47.838Z,38.99
2018-06-23T18:02:17.019Z,38.45
2018-06-23T18:04:45.999Z,38.35
2018-06-23T18:07:15.384Z,38.34
2018-06-23T18:09:46.139Z,38.97
2018-06-23T18:12:15.829Z,38.99
2018-06-23T18:14:45.761Z,39.08
2018-06-23T18:17:15.395Z,38.82
2018-06-23T18:19:44.416Z,39.09
2018-06-23T18:22:13.451Z,38.95
2018-06-23T18:24:42.509Z,38.75
2018-06-23T18:27:11.478Z,38.35
2018-06-23T18:29:40.521Z,38.69
2018-06-23T18:32:09.448Z,40.65
2018-06-23T18:34:38.697Z,38.83
2018-06-23T18:37:08.634Z,38.89
2018-06-23T18:39:38.200Z,39.34
2018-06-23T18:42:07.229Z,38.63
2018-06-23T18:44:36.195Z,39.19
2018-06-23T18:47:05.208Z,39.36
2018-06-23T18:49:34.147Z,39.81
2018-06-23T18:52:03.814Z,39.50
2018-06-23T18:54:32.797Z,39.56
2018-06-23T18:57:01.810Z,38.67
2018-06-23T18:59:30.841Z,39.52
2018-06-23T19:01:59.915Z,39.14
2018-06-23T19:04:28.836Z,38.75
2018-06-23T19:06:57.913Z,39.19
2018-06-23T19:09:26.969Z,40.20
2018-06-23T19:11:56.896Z,40.19
2018-06-23T19:14:26.000Z,39.27
2018-06-23T19:16:54.971Z,38.97
2018-06-23T19:19:24.007Z,39.96
2018-06-23T19:21:53.037Z,39.75
2018-06-23T19:24:22.108Z,39.43
2018-06-23T19:26:51.037Z,39.72
2018-06-23T19:29:20.186Z,40.93
2018-06-23T19:31:49.156Z,41.45
2018-06-23T19:34:18.887Z,40.97
2018-06-23T19:36:47.882Z,41.61
2018-06-23T19:39:16.787Z,41.34
2018-06-23T19:41:46.575Z,41.06
2018-06-23T19:44:15.629Z,41.84
2018-06-23T19:46:44.616Z,41.44
2018-06-23T19:49:13.611Z,41.33
2018-06-23T19:51:42.626Z,41.51
2018-06-23T19:54:11.645Z,41.38
2018-06-23T19:56:40.648Z,41.91
2018-06-23T19:59:09.651Z,41.76
2018-06-23T20:01:39.433Z,40.70
2018-06-23T20:04:08.381Z,41.37
2018-06-23T20:06:37.448Z,41.18
2018-06-23T20:09:08.625Z,41.23
2018-06-23T20:11:37.753Z,41.87
2018-06-23T20:14:06.883Z,40.64
2018-06-23T20:16:36.653Z,40.66
2018-06-23T20:19:05.848Z,39.78
2018-06-23T20:21:34.866Z,40.45
2018-06-23T20:24:03.828Z,41.63
2018-06-23T20:26:33.580Z,39.85
2018-06-23T20:29:02.633Z,39.07
2018-06-23T20:31:32.187Z,40.61
2018-06-23T20:34:01.320Z,42.13
2018-06-23T20:36:30.299Z,39.60
2018-06-23T20:38:59.287Z,41.70
2018-06-23T20:41:28.384Z,40.74
2018-06-23T20:43:57.438Z,41.49
2018-06-23T20:46:26.453Z,40.61
2018-06-23T20:48:56.706Z,39.95
2018-06-23T20:51:25.721Z,40.73
2018-06-23T20:53:54.669Z,41.53
2018-06-23T20:56:23.777Z,40.53
2018-06-23T20:58:52.736Z,41.23
2018-06-23T21:01:21.689Z,41.74
2018-06-23T21:03:50.824Z,43.46
2018-06-23T21:06:19.749Z,42.93
2018-06-23T21:08:48.660Z,42.66
2018-06-23T21:11:17.632Z,42.14
2018-06-23T21:13:46.662Z,42.15
2018-06-23T21:16:16.286Z,43.68
2018-06-23T21:18:45.887Z,45.48
2018-06-23T21:21:14.902Z,44.42
2018-06-23T21:23:43.903Z,45.77
2018-06-23T21:26:12.956Z,44.80
2018-06-23T21:28:41.895Z,44.58
2018-06-23T21:31:10.870Z,45.18
2018-06-23T21:33:40.608Z,43.76
2018-06-23T21:36:09.556Z,45.46
2018-06-23T21:38:38.454Z,44.28
2018-06-23T21:41:07.775Z,43.39
2018-06-23T21:43:36.707Z,44.14
2018-06-23T21:46:05.708Z,45.37
2018-06-23T21:48:34.727Z,46.90
2018-06-23T21:51:04.207Z,45.12
2018-06-23T21:53:33.201Z,45.16
2018-06-23T21:56:02.229Z,44.59
2018-06-23T21:58:31.809Z,45.90
2018-06-23T22:01:00.752Z,46.19
2018-06-23T22:03:30.216Z,47.34
2018-06-23T22:05:59.920Z,47.21
2018-06-23T22:08:28.891Z,48.56
2018-06-23T22:10:57.958Z,46.58
2018-06-23T22:13:26.921Z,48.76
2018-06-23T22:15:55.819Z,49.75
2018-06-23T22:18:25.551Z,47.65
2018-06-23T22:20:54.561Z,49.16
2018-06-23T22:23:23.503Z,48.96
2018-06-23T22:25:52.543Z,51.05
2018-06-23T22:28:21.448Z,50.34
2018-06-23T22:30:50.388Z,50.15
2018-06-23T22:33:19.357Z,48.21
2018-06-23T22:35:49.036Z,49.62
2018-06-23T22:38:18.457Z,49.29
2018-06-23T22:40:47.601Z,49.22
2018-06-23T22:43:16.541Z,50.81
2018-06-23T22:45:46.075Z,50.63
2018-06-23T22:48:15.177Z,50.62
2018-06-23T22:50:44.123Z,50.93
2018-06-23T22:53:13.040Z,51.03
2018-06-23T22:55:42.002Z,49.32
2018-06-23T22:58:11.006Z,50.39
2018-06-23T23:00:40.504Z,48.82
2018-06-23T23:03:10.260Z,48.71
2018-06-23T23:05:39.192Z,49.39
2018-06-23T23:08:08.866Z,48.68
2018-06-23T23:10:37.927Z,48.31
2018-06-23T23:13:07.152Z,47.42
2018-06-23T23:15:36.156Z,47.47
2018-06-23T23:18:05.214Z,45.89
2018-06-23T23:20:34.273Z,45.77
2018-06-23T23:23:03.254Z,46.25
2018-06-23T23:25:32.361Z,47.22
2018-06-23T23:28:01.424Z,47.59
2018-06-23T23:30:33.464Z,47.22
2018-06-23T23:33:02.416Z,46.43
2018-06-23T23:35:31.420Z,46.47
2018-06-23T23:38:00.501Z,47.32
2018-06-23T23:40:31.597Z,46.53
2018-06-23T23:43:00.718Z,46.85
2018-06-23T23:45:29.644Z,46.10
2018-06-23T23:47:58.581Z,46.98
2018-06-23T23:50:27.634Z,46.56
2018-06-23T23:52:57.060Z,46.74
2018-06-23T23:55:26.186Z,48.10
2018-06-23T23:57:55.257Z,46.29
